sensor_id;sensor_type;location;lat;lon;timestamp;P1;durP1;ratioP1;P2;durP2;ratioP2
1975;SDS011;988;48.016;7.800;2022-07-05T00:00:18;19.90;;;18.70;;
1975;SDS011;988;48.016;7.800;2022-07-05T00:02:44;20.90;;;19.70;;
1975;SDS011;988;48.016;7.800;2022-07-05T00:05:10;20.70;;;19.30;;
1975;SDS011;988;48.016;7.800;2022-07-05T00:07:36;20.13;;;19.03;;
1975;SDS011;988;48.016;7.800;2022-07-05T00:10:02;20.20;;;19.10;;
1975;SDS011;988;48.016;7.800;2022-07-05T00:12:29;20.60;;;19.40;;
1975;SDS011;988;48.016;7.800;2022-07-05T00:14:57;20.20;;;19.00;;
1975;SDS011;988;48.016;7.800;2022-07-05T00:17:23;21.10;;;19.70;;
1975;SDS011;988;48.016;7.800;2022-07-05T00:19:49;20.20;;;19.00;;
1975;SDS011;988;48.016;7.800;2022-07-05T00:22:15;20.53;;;19.13;;
1975;SDS011;988;48.016;7.800;2022-07-05T00:24:41;19.83;;;18.73;;
1975;SDS011;988;48.016;7.800;2022-07-05T00:27:07;20.47;;;19.17;;
1975;SDS011;988;48.016;7.800;2022-07-05T00:29:33;20.53;;;19.33;;
1975;SDS011;988;48.016;7.800;2022-07-05T00:31:59;20.70;;;19.50;;
1975;SDS011;988;48.016;7.800;2022-07-05T00:34:25;20.67;;;19.20;;
1975;SDS011;988;48.016;7.800;2022-07-05T00:36:51;20.10;;;19.00;;
1975;SDS011;988;48.016;7.800;2022-07-05T00:39:17;20.40;;;19.20;;
1975;SDS011;988;48.016;7.800;2022-07-05T00:41:43;20.97;;;19.57;;
1975;SDS011;988;48.016;7.800;2022-07-05T00:44:09;20.10;;;19.00;;
1975;SDS011;988;48.016;7.800;2022-07-05T00:46:36;20.90;;;19.00;;
1975;SDS011;988;48.016;7.800;2022-07-05T00:49:03;20.90;;;19.60;;
1975;SDS011;988;48.016;7.800;2022-07-05T00:51:30;20.60;;;19.40;;
1975;SDS011;988;48.016;7.800;2022-07-05T00:53:56;21.33;;;19.70;;
1975;SDS011;988;48.016;7.800;2022-07-05T00:56:23;21.27;;;19.87;;
1975;SDS011;988;48.016;7.800;2022-07-05T00:58:49;21.80;;;20.50;;
1975;SDS011;988;48.016;7.800;2022-07-05T01:01:16;21.27;;;20.07;;
1975;SDS011;988;48.016;7.800;2022-07-05T01:03:42;20.87;;;19.67;;
1975;SDS011;988;48.016;7.800;2022-07-05T01:06:09;20.90;;;19.70;;
1975;SDS011;988;48.016;7.800;2022-07-05T01:08:36;20.50;;;19.30;;
1975;SDS011;988;48.016;7.800;2022-07-05T01:11:03;20.50;;;19.30;;
1975;SDS011;988;48.016;7.800;2022-07-05T01:13:29;21.17;;;19.77;;
1975;SDS011;988;48.016;7.800;2022-07-05T01:15:56;21.07;;;19.77;;
1975;SDS011;988;48.016;7.800;2022-07-05T01:18:23;28.50;;;26.30;;
1975;SDS011;988;48.016;7.800;2022-07-05T01:20:50;26.77;;;24.87;;
1975;SDS011;988;48.016;7.800;2022-07-05T01:23:18;21.53;;;20.23;;
1975;SDS011;988;48.016;7.800;2022-07-05T01:25:44;20.80;;;19.70;;
1975;SDS011;988;48.016;7.800;2022-07-05T01:28:10;20.70;;;19.40;;
1975;SDS011;988;48.016;7.800;2022-07-05T01:30:36;21.27;;;19.53;;
1975;SDS011;988;48.016;7.800;2022-07-05T01:33:04;20.90;;;19.60;;
1975;SDS011;988;48.016;7.800;2022-07-05T01:35:30;20.20;;;18.90;;
1975;SDS011;988;48.016;7.800;2022-07-05T01:37:56;20.40;;;19.27;;
1975;SDS011;988;48.016;7.800;2022-07-05T01:40:22;21.30;;;20.03;;
1975;SDS011;988;48.016;7.800;2022-07-05T01:42:48;20.97;;;19.70;;
1975;SDS011;988;48.016;7.800;2022-07-05T01:45:14;20.87;;;19.43;;
1975;SDS011;988;48.016;7.800;2022-07-05T01:48:02;20.83;;;19.57;;
1975;SDS011;988;48.016;7.800;2022-07-05T01:50:28;20.90;;;19.63;;
1975;SDS011;988;48.016;7.800;2022-07-05T01:52:55;20.77;;;19.23;;
1975;SDS011;988;48.016;7.800;2022-07-05T01:55:22;20.00;;;18.90;;
1975;SDS011;988;48.016;7.800;2022-07-05T01:57:48;20.07;;;18.87;;
1975;SDS011;988;48.016;7.800;2022-07-05T02:00:14;21.20;;;19.70;;
1975;SDS011;988;48.016;7.800;2022-07-05T02:02:43;20.27;;;19.17;;
1975;SDS011;988;48.016;7.800;2022-07-05T02:05:10;20.50;;;19.30;;
1975;SDS011;988;48.016;7.800;2022-07-05T02:07:36;20.50;;;19.17;;
1975;SDS011;988;48.016;7.800;2022-07-05T02:10:02;20.87;;;19.57;;
1975;SDS011;988;48.016;7.800;2022-07-05T02:12:28;20.40;;;19.10;;
1975;SDS011;988;48.016;7.800;2022-07-05T02:14:54;21.27;;;19.30;;
1975;SDS011;988;48.016;7.800;2022-07-05T02:17:20;19.93;;;18.63;;
1975;SDS011;988;48.016;7.800;2022-07-05T02:19:46;19.90;;;18.80;;
1975;SDS011;988;48.016;7.800;2022-07-05T02:22:12;20.17;;;19.07;;
1975;SDS011;988;48.016;7.800;2022-07-05T02:24:39;19.43;;;18.10;;
1975;SDS011;988;48.016;7.800;2022-07-05T02:27:05;19.20;;;18.20;;
1975;SDS011;988;48.016;7.800;2022-07-05T02:29:31;18.97;;;17.70;;
1975;SDS011;988;48.016;7.800;2022-07-05T02:31:57;19.87;;;18.37;;
1975;SDS011;988;48.016;7.800;2022-07-05T02:34:23;18.53;;;16.80;;
1975;SDS011;988;48.016;7.800;2022-07-05T02:36:49;18.60;;;17.40;;
1975;SDS011;988;48.016;7.800;2022-07-05T02:39:15;19.60;;;18.50;;
1975;SDS011;988;48.016;7.800;2022-07-05T02:41:41;18.00;;;16.90;;
1975;SDS011;988;48.016;7.800;2022-07-05T02:44:07;19.87;;;18.33;;
1975;SDS011;988;48.016;7.800;2022-07-05T02:46:33;18.40;;;17.10;;
1975;SDS011;988;48.016;7.800;2022-07-05T02:48:59;18.50;;;17.40;;
1975;SDS011;988;48.016;7.800;2022-07-05T02:51:25;18.67;;;17.40;;
1975;SDS011;988;48.016;7.800;2022-07-05T02:53:51;18.10;;;17.00;;
1975;SDS011;988;48.016;7.800;2022-07-05T02:56:17;19.20;;;17.77;;
1975;SDS011;988;48.016;7.800;2022-07-05T02:58:43;19.40;;;18.10;;
1975;SDS011;988;48.016;7.800;2022-07-05T03:01:09;18.90;;;17.90;;
1975;SDS011;988;48.016;7.800;2022-07-05T03:03:35;18.10;;;17.00;;
1975;SDS011;988;48.016;7.800;2022-07-05T03:06:01;18.20;;;17.20;;
1975;SDS011;988;48.016;7.800;2022-07-05T03:08:27;18.53;;;17.50;;
1975;SDS011;988;48.016;7.800;2022-07-05T03:10:53;17.50;;;16.50;;
1975;SDS011;988;48.016;7.800;2022-07-05T03:13:19;18.20;;;17.07;;
1975;SDS011;988;48.016;7.800;2022-07-05T03:15:45;18.00;;;16.90;;
1975;SDS011;988;48.016;7.800;2022-07-05T03:18:11;19.10;;;17.80;;
1975;SDS011;988;48.016;7.800;2022-07-05T03:20:37;18.23;;;17.20;;
1975;SDS011;988;48.016;7.800;2022-07-05T03:23:03;20.07;;;18.47;;
1975;SDS011;988;48.016;7.800;2022-07-05T03:25:29;18.60;;;16.93;;
1975;SDS011;988;48.016;7.800;2022-07-05T03:27:55;17.90;;;16.80;;
1975;SDS011;988;48.016;7.800;2022-07-05T03:30:21;17.13;;;16.07;;
1975;SDS011;988;48.016;7.800;2022-07-05T03:32:48;18.07;;;16.97;;
1975;SDS011;988;48.016;7.800;2022-07-05T03:35:14;18.57;;;17.47;;
1975;SDS011;988;48.016;7.800;2022-07-05T03:37:40;18.00;;;17.00;;
1975;SDS011;988;48.016;7.800;2022-07-05T03:40:06;18.27;;;17.17;;
1975;SDS011;988;48.016;7.800;2022-07-05T03:42:32;18.00;;;16.60;;
1975;SDS011;988;48.016;7.800;2022-07-05T03:45:00;19.17;;;17.57;;
1975;SDS011;988;48.016;7.800;2022-07-05T03:47:26;18.57;;;17.00;;
1975;SDS011;988;48.016;7.800;2022-07-05T03:49:52;18.67;;;17.57;;
1975;SDS011;988;48.016;7.800;2022-07-05T03:52:19;20.93;;;19.63;;
1975;SDS011;988;48.016;7.800;2022-07-05T03:54:46;18.37;;;17.23;;
1975;SDS011;988;48.016;7.800;2022-07-05T03:57:12;19.70;;;18.47;;
1975;SDS011;988;48.016;7.800;2022-07-05T03:59:38;19.93;;;18.47;;
1975;SDS011;988;48.016;7.800;2022-07-05T04:02:04;18.67;;;17.67;;
1975;SDS011;988;48.016;7.800;2022-07-05T04:04:30;20.10;;;18.90;;
1975;SDS011;988;48.016;7.800;2022-07-05T04:06:56;20.37;;;18.97;;
1975;SDS011;988;48.016;7.800;2022-07-05T04:09:22;19.30;;;18.20;;
1975;SDS011;988;48.016;7.800;2022-07-05T04:11:48;20.17;;;18.70;;
1975;SDS011;988;48.016;7.800;2022-07-05T04:14:14;20.57;;;19.17;;
1975;SDS011;988;48.016;7.800;2022-07-05T04:16:40;20.53;;;18.93;;
1975;SDS011;988;48.016;7.800;2022-07-05T04:19:06;20.60;;;19.20;;
1975;SDS011;988;48.016;7.800;2022-07-05T04:21:32;20.57;;;19.37;;
1975;SDS011;988;48.016;7.800;2022-07-05T04:23:58;20.00;;;18.70;;
1975;SDS011;988;48.016;7.800;2022-07-05T04:26:24;20.57;;;19.20;;
1975;SDS011;988;48.016;7.800;2022-07-05T04:28:50;20.73;;;19.43;;
1975;SDS011;988;48.016;7.800;2022-07-05T04:31:16;20.80;;;19.50;;
1975;SDS011;988;48.016;7.800;2022-07-05T04:33:42;20.70;;;19.00;;
1975;SDS011;988;48.016;7.800;2022-07-05T04:36:08;21.00;;;19.70;;
1975;SDS011;988;48.016;7.800;2022-07-05T04:38:34;21.80;;;20.10;;
1975;SDS011;988;48.016;7.800;2022-07-05T04:41:00;20.60;;;19.30;;
1975;SDS011;988;48.016;7.800;2022-07-05T04:43:26;20.73;;;19.23;;
1975;SDS011;988;48.016;7.800;2022-07-05T04:45:52;20.10;;;18.90;;
1975;SDS011;988;48.016;7.800;2022-07-05T04:48:18;19.80;;;18.70;;
1975;SDS011;988;48.016;7.800;2022-07-05T04:50:44;21.50;;;19.57;;
1975;SDS011;988;48.016;7.800;2022-07-05T04:53:10;22.27;;;19.80;;
1975;SDS011;988;48.016;7.800;2022-07-05T04:55:36;20.80;;;19.50;;
1975;SDS011;988;48.016;7.800;2022-07-05T04:58:02;19.83;;;18.73;;
1975;SDS011;988;48.016;7.800;2022-07-05T05:00:28;21.70;;;20.30;;
1975;SDS011;988;48.016;7.800;2022-07-05T05:02:54;21.20;;;19.50;;
1975;SDS011;988;48.016;7.800;2022-07-05T05:05:20;21.43;;;19.93;;
1975;SDS011;988;48.016;7.800;2022-07-05T05:07:46;21.73;;;20.03;;
1975;SDS011;988;48.016;7.800;2022-07-05T05:10:12;22.07;;;20.60;;
1975;SDS011;988;48.016;7.800;2022-07-05T05:12:39;21.40;;;20.10;;
1975;SDS011;988;48.016;7.800;2022-07-05T05:15:05;21.30;;;19.50;;
1975;SDS011;988;48.016;7.800;2022-07-05T05:17:38;20.80;;;19.60;;
1975;SDS011;988;48.016;7.800;2022-07-05T05:20:06;21.77;;;19.60;;
1975;SDS011;988;48.016;7.800;2022-07-05T05:22:32;20.50;;;18.97;;
1975;SDS011;988;48.016;7.800;2022-07-05T05:24:58;21.23;;;19.30;;
1975;SDS011;988;48.016;7.800;2022-07-05T05:27:24;21.63;;;19.40;;
1975;SDS011;988;48.016;7.800;2022-07-05T05:29:50;21.90;;;20.40;;
1975;SDS011;988;48.016;7.800;2022-07-05T05:32:16;22.37;;;20.40;;
1975;SDS011;988;48.016;7.800;2022-07-05T05:34:42;23.07;;;20.80;;
1975;SDS011;988;48.016;7.800;2022-07-05T05:37:08;23.10;;;21.03;;
1975;SDS011;988;48.016;7.800;2022-07-05T05:39:34;22.20;;;20.47;;
1975;SDS011;988;48.016;7.800;2022-07-05T05:42:01;23.20;;;20.97;;
1975;SDS011;988;48.016;7.800;2022-07-05T05:44:27;22.50;;;21.07;;
1975;SDS011;988;48.016;7.800;2022-07-05T05:46:53;22.50;;;20.80;;
1975;SDS011;988;48.016;7.800;2022-07-05T05:49:19;22.20;;;20.60;;
1975;SDS011;988;48.016;7.800;2022-07-05T05:51:45;22.60;;;21.10;;
1975;SDS011;988;48.016;7.800;2022-07-05T05:54:11;22.17;;;20.67;;
1975;SDS011;988;48.016;7.800;2022-07-05T05:56:37;22.77;;;21.07;;
1975;SDS011;988;48.016;7.800;2022-07-05T05:59:03;21.77;;;20.40;;
1975;SDS011;988;48.016;7.800;2022-07-05T06:01:29;22.30;;;20.80;;
1975;SDS011;988;48.016;7.800;2022-07-05T06:03:55;23.43;;;21.23;;
1975;SDS011;988;48.016;7.800;2022-07-05T06:06:21;21.80;;;20.40;;
1975;SDS011;988;48.016;7.800;2022-07-05T06:08:49;22.27;;;20.60;;
1975;SDS011;988;48.016;7.800;2022-07-05T06:11:14;21.20;;;19.70;;
1975;SDS011;988;48.016;7.800;2022-07-05T06:13:40;21.53;;;19.97;;
1975;SDS011;988;48.016;7.800;2022-07-05T06:16:07;20.47;;;19.33;;
1975;SDS011;988;48.016;7.800;2022-07-05T06:18:33;20.53;;;19.23;;
1975;SDS011;988;48.016;7.800;2022-07-05T06:20:59;21.30;;;20.00;;
1975;SDS011;988;48.016;7.800;2022-07-05T06:23:25;20.80;;;19.40;;
1975;SDS011;988;48.016;7.800;2022-07-05T06:25:51;21.13;;;19.77;;
1975;SDS011;988;48.016;7.800;2022-07-05T06:28:17;21.50;;;20.10;;
1975;SDS011;988;48.016;7.800;2022-07-05T06:30:43;21.07;;;19.87;;
1975;SDS011;988;48.016;7.800;2022-07-05T06:33:09;20.80;;;19.60;;
1975;SDS011;988;48.016;7.800;2022-07-05T06:35:35;21.27;;;20.00;;
1975;SDS011;988;48.016;7.800;2022-07-05T06:38:06;20.87;;;19.63;;
1975;SDS011;988;48.016;7.800;2022-07-05T06:40:38;23.00;;;21.20;;
1975;SDS011;988;48.016;7.800;2022-07-05T06:43:05;20.73;;;19.50;;
1975;SDS011;988;48.016;7.800;2022-07-05T06:45:31;22.10;;;20.60;;
1975;SDS011;988;48.016;7.800;2022-07-05T06:48:01;21.50;;;20.20;;
1975;SDS011;988;48.016;7.800;2022-07-05T06:50:28;21.70;;;20.37;;
1975;SDS011;988;48.016;7.800;2022-07-05T06:52:55;21.83;;;20.63;;
1975;SDS011;988;48.016;7.800;2022-07-05T06:55:22;21.97;;;20.37;;
1975;SDS011;988;48.016;7.800;2022-07-05T06:57:48;22.00;;;20.50;;
1975;SDS011;988;48.016;7.800;2022-07-05T07:00:15;22.10;;;20.80;;
1975;SDS011;988;48.016;7.800;2022-07-05T07:02:41;22.03;;;20.63;;
1975;SDS011;988;48.016;7.800;2022-07-05T07:05:07;21.60;;;20.30;;
1975;SDS011;988;48.016;7.800;2022-07-05T07:07:33;21.30;;;20.00;;
1975;SDS011;988;48.016;7.800;2022-07-05T07:10:18;21.83;;;20.43;;
1975;SDS011;988;48.016;7.800;2022-07-05T07:12:44;22.30;;;20.80;;
1975;SDS011;988;48.016;7.800;2022-07-05T07:15:10;21.60;;;20.40;;
1975;SDS011;988;48.016;7.800;2022-07-05T07:17:36;21.57;;;20.03;;
1975;SDS011;988;48.016;7.800;2022-07-05T07:20:02;21.60;;;20.20;;
1975;SDS011;988;48.016;7.800;2022-07-05T07:22:28;21.00;;;19.87;;
1975;SDS011;988;48.016;7.800;2022-07-05T07:24:54;22.10;;;20.60;;
1975;SDS011;988;48.016;7.800;2022-07-05T07:27:21;21.47;;;19.97;;
1975;SDS011;988;48.016;7.800;2022-07-05T07:29:47;20.97;;;19.70;;
1975;SDS011;988;48.016;7.800;2022-07-05T07:32:13;22.17;;;20.60;;
1975;SDS011;988;48.016;7.800;2022-07-05T07:34:40;21.93;;;20.50;;
1975;SDS011;988;48.016;7.800;2022-07-05T07:37:07;21.53;;;20.00;;
1975;SDS011;988;48.016;7.800;2022-07-05T07:39:38;21.50;;;20.20;;
1975;SDS011;988;48.016;7.800;2022-07-05T07:42:04;23.73;;;21.80;;
1975;SDS011;988;48.016;7.800;2022-07-05T07:44:30;24.27;;;22.77;;
1975;SDS011;988;48.016;7.800;2022-07-05T07:46:56;22.73;;;21.23;;
1975;SDS011;988;48.016;7.800;2022-07-05T07:49:23;22.70;;;21.20;;
1975;SDS011;988;48.016;7.800;2022-07-05T07:51:50;22.50;;;20.90;;
1975;SDS011;988;48.016;7.800;2022-07-05T07:54:17;22.00;;;20.70;;
1975;SDS011;988;48.016;7.800;2022-07-05T07:56:43;22.70;;;21.20;;
1975;SDS011;988;48.016;7.800;2022-07-05T07:59:09;23.23;;;21.83;;
1975;SDS011;988;48.016;7.800;2022-07-05T08:01:36;22.90;;;21.43;;
1975;SDS011;988;48.016;7.800;2022-07-05T08:04:01;23.20;;;21.80;;
1975;SDS011;988;48.016;7.800;2022-07-05T08:06:27;23.17;;;21.67;;
1975;SDS011;988;48.016;7.800;2022-07-05T08:08:55;23.67;;;22.27;;
1975;SDS011;988;48.016;7.800;2022-07-05T08:11:21;23.30;;;21.90;;
1975;SDS011;988;48.016;7.800;2022-07-05T08:13:47;23.03;;;21.40;;
1975;SDS011;988;48.016;7.800;2022-07-05T08:16:13;23.17;;;21.77;;
1975;SDS011;988;48.016;7.800;2022-07-05T08:18:39;23.27;;;21.87;;
1975;SDS011;988;48.016;7.800;2022-07-05T08:21:24;24.13;;;22.53;;
1975;SDS011;988;48.016;7.800;2022-07-05T08:23:59;24.17;;;22.53;;
1975;SDS011;988;48.016;7.800;2022-07-05T08:26:26;23.17;;;21.70;;
1975;SDS011;988;48.016;7.800;2022-07-05T08:28:52;25.10;;;23.40;;
1975;SDS011;988;48.016;7.800;2022-07-05T08:31:18;24.70;;;23.20;;
1975;SDS011;988;48.016;7.800;2022-07-05T08:33:44;24.63;;;23.13;;
1975;SDS011;988;48.016;7.800;2022-07-05T08:36:10;24.43;;;22.83;;
1975;SDS011;988;48.016;7.800;2022-07-05T08:38:36;26.00;;;24.40;;
1975;SDS011;988;48.016;7.800;2022-07-05T08:41:02;27.10;;;25.27;;
1975;SDS011;988;48.016;7.800;2022-07-05T08:43:28;25.87;;;24.20;;
1975;SDS011;988;48.016;7.800;2022-07-05T08:45:56;26.20;;;24.60;;
1975;SDS011;988;48.016;7.800;2022-07-05T08:48:22;26.27;;;24.23;;
1975;SDS011;988;48.016;7.800;2022-07-05T08:50:49;26.07;;;24.47;;
1975;SDS011;988;48.016;7.800;2022-07-05T08:53:20;26.60;;;24.27;;
1975;SDS011;988;48.016;7.800;2022-07-05T08:55:46;25.30;;;23.50;;
1975;SDS011;988;48.016;7.800;2022-07-05T08:58:12;25.53;;;23.73;;
1975;SDS011;988;48.016;7.800;2022-07-05T09:00:38;27.00;;;25.20;;
1975;SDS011;988;48.016;7.800;2022-07-05T09:03:05;26.73;;;24.93;;
1975;SDS011;988;48.016;7.800;2022-07-05T09:05:33;25.60;;;24.10;;
1975;SDS011;988;48.016;7.800;2022-07-05T09:08:00;25.80;;;24.20;;
1975;SDS011;988;48.016;7.800;2022-07-05T09:10:27;25.37;;;23.47;;
1975;SDS011;988;48.016;7.800;2022-07-05T09:12:54;26.70;;;24.90;;
1975;SDS011;988;48.016;7.800;2022-07-05T09:15:20;26.77;;;24.70;;
1975;SDS011;988;48.016;7.800;2022-07-05T09:17:46;24.30;;;22.70;;
1975;SDS011;988;48.016;7.800;2022-07-05T09:20:13;25.10;;;23.30;;
1975;SDS011;988;48.016;7.800;2022-07-05T09:25:15;24.90;;;23.40;;
1975;SDS011;988;48.016;7.800;2022-07-05T09:30:22;24.57;;;22.80;;
1975;SDS011;988;48.016;7.800;2022-07-05T09:32:59;24.57;;;23.03;;
1975;SDS011;988;48.016;7.800;2022-07-05T09:35:26;25.27;;;23.60;;
1975;SDS011;988;48.016;7.800;2022-07-05T09:37:53;25.00;;;23.50;;
1975;SDS011;988;48.016;7.800;2022-07-05T09:40:19;25.37;;;23.97;;
1975;SDS011;988;48.016;7.800;2022-07-05T09:42:45;25.20;;;23.70;;
1975;SDS011;988;48.016;7.800;2022-07-05T09:45:11;24.10;;;22.53;;
1975;SDS011;988;48.016;7.800;2022-07-05T09:47:38;24.53;;;23.13;;
1975;SDS011;988;48.016;7.800;2022-07-05T09:50:04;24.03;;;22.63;;
1975;SDS011;988;48.016;7.800;2022-07-05T09:52:33;23.77;;;21.70;;
1975;SDS011;988;48.016;7.800;2022-07-05T09:55:04;24.63;;;23.07;;
1975;SDS011;988;48.016;7.800;2022-07-05T09:57:31;24.87;;;23.27;;
1975;SDS011;988;48.016;7.800;2022-07-05T10:00:07;25.90;;;24.30;;
1975;SDS011;988;48.016;7.800;2022-07-05T10:02:43;25.40;;;23.70;;
1975;SDS011;988;48.016;7.800;2022-07-05T10:05:17;25.70;;;23.90;;
1975;SDS011;988;48.016;7.800;2022-07-05T10:07:44;25.57;;;23.90;;
1975;SDS011;988;48.016;7.800;2022-07-05T10:10:13;25.50;;;23.27;;
1975;SDS011;988;48.016;7.800;2022-07-05T10:12:39;25.53;;;23.83;;
1975;SDS011;988;48.016;7.800;2022-07-05T10:15:06;26.30;;;24.50;;
1975;SDS011;988;48.016;7.800;2022-07-05T10:17:35;26.60;;;24.93;;
1975;SDS011;988;48.016;7.800;2022-07-05T10:20:02;25.50;;;23.90;;
1975;SDS011;988;48.016;7.800;2022-07-05T10:22:29;23.60;;;21.77;;
1975;SDS011;988;48.016;7.800;2022-07-05T10:24:55;24.13;;;22.57;;
1975;SDS011;988;48.016;7.800;2022-07-05T10:27:21;24.05;;;22.48;;
1975;SDS011;988;48.016;7.800;2022-07-05T10:29:48;24.20;;;22.50;;
1975;SDS011;988;48.016;7.800;2022-07-05T10:32:15;25.55;;;23.55;;
1975;SDS011;988;48.016;7.800;2022-07-05T10:34:42;25.95;;;24.35;;
1975;SDS011;988;48.016;7.800;2022-07-05T10:37:11;25.20;;;23.27;;
1975;SDS011;988;48.016;7.800;2022-07-05T10:39:37;26.40;;;24.77;;
1975;SDS011;988;48.016;7.800;2022-07-05T10:42:04;26.48;;;24.73;;
1975;SDS011;988;48.016;7.800;2022-07-05T10:44:31;26.05;;;24.45;;
1975;SDS011;988;48.016;7.800;2022-07-05T10:47:08;26.05;;;24.40;;
1975;SDS011;988;48.016;7.800;2022-07-05T10:49:38;27.17;;;25.58;;
1975;SDS011;988;48.016;7.800;2022-07-05T10:52:04;26.60;;;24.48;;
1975;SDS011;988;48.016;7.800;2022-07-05T10:54:30;26.13;;;24.52;;
1975;SDS011;988;48.016;7.800;2022-07-05T11:02:27;25.40;;;23.90;;
1975;SDS011;988;48.016;7.800;2022-07-05T11:04:56;26.15;;;24.52;;
1975;SDS011;988;48.016;7.800;2022-07-05T11:10:30;25.92;;;24.25;;
1975;SDS011;988;48.016;7.800;2022-07-05T11:12:57;25.85;;;24.35;;
1975;SDS011;988;48.016;7.800;2022-07-05T11:15:24;26.85;;;25.42;;
1975;SDS011;988;48.016;7.800;2022-07-05T11:17:50;28.60;;;26.45;;
1975;SDS011;988;48.016;7.800;2022-07-05T11:20:36;28.17;;;26.27;;
1975;SDS011;988;48.016;7.800;2022-07-05T11:25:32;27.17;;;25.67;;
1975;SDS011;988;48.016;7.800;2022-07-05T11:28:00;26.48;;;24.88;;
1975;SDS011;988;48.016;7.800;2022-07-05T11:30:27;25.58;;;24.17;;
1975;SDS011;988;48.016;7.800;2022-07-05T11:32:53;26.60;;;24.83;;
1975;SDS011;988;48.016;7.800;2022-07-05T11:35:19;25.98;;;24.48;;
1975;SDS011;988;48.016;7.800;2022-07-05T11:37:58;27.17;;;25.67;;
1975;SDS011;988;48.016;7.800;2022-07-05T11:40:26;27.52;;;26.13;;
1975;SDS011;988;48.016;7.800;2022-07-05T11:42:53;28.17;;;26.70;;
1975;SDS011;988;48.016;7.800;2022-07-05T11:45:20;28.27;;;26.70;;
1975;SDS011;988;48.016;7.800;2022-07-05T11:47:46;29.58;;;27.52;;
1975;SDS011;988;48.016;7.800;2022-07-05T11:50:12;27.50;;;25.88;;
1975;SDS011;988;48.016;7.800;2022-07-05T11:52:38;29.00;;;27.20;;
1975;SDS011;988;48.016;7.800;2022-07-05T11:55:07;28.13;;;26.42;;
1975;SDS011;988;48.016;7.800;2022-07-05T11:57:34;27.65;;;26.05;;
1975;SDS011;988;48.016;7.800;2022-07-05T12:00:00;27.67;;;25.92;;
1975;SDS011;988;48.016;7.800;2022-07-05T12:02:26;27.17;;;25.02;;
1975;SDS011;988;48.016;7.800;2022-07-05T12:04:52;24.90;;;23.30;;
1975;SDS011;988;48.016;7.800;2022-07-05T12:07:28;27.20;;;25.48;;
1975;SDS011;988;48.016;7.800;2022-07-05T12:09:56;24.98;;;23.63;;
1975;SDS011;988;48.016;7.800;2022-07-05T12:12:41;27.35;;;25.85;;
1975;SDS011;988;48.016;7.800;2022-07-05T12:17:36;28.67;;;26.77;;
1975;SDS011;988;48.016;7.800;2022-07-05T12:20:03;27.08;;;25.50;;
1975;SDS011;988;48.016;7.800;2022-07-05T12:24:55;25.33;;;23.90;;
1975;SDS011;988;48.016;7.800;2022-07-05T12:27:23;26.27;;;24.67;;
1975;SDS011;988;48.016;7.800;2022-07-05T12:29:49;24.17;;;22.40;;
1975;SDS011;988;48.016;7.800;2022-07-05T12:32:15;24.40;;;23.10;;
1975;SDS011;988;48.016;7.800;2022-07-05T12:34:41;27.13;;;25.48;;
1975;SDS011;988;48.016;7.800;2022-07-05T12:37:07;24.53;;;23.07;;
1975;SDS011;988;48.016;7.800;2022-07-05T12:39:33;24.48;;;22.77;;
1975;SDS011;988;48.016;7.800;2022-07-05T12:42:00;24.33;;;23.00;;
1975;SDS011;988;48.016;7.800;2022-07-05T12:44:26;24.27;;;22.70;;
1975;SDS011;988;48.016;7.800;2022-07-05T12:46:52;24.70;;;23.20;;
1975;SDS011;988;48.016;7.800;2022-07-05T12:49:29;24.43;;;22.97;;
1975;SDS011;988;48.016;7.800;2022-07-05T12:51:55;24.53;;;23.23;;
1975;SDS011;988;48.016;7.800;2022-07-05T12:54:29;26.10;;;24.57;;
1975;SDS011;988;48.016;7.800;2022-07-05T12:57:14;24.10;;;22.67;;
1975;SDS011;988;48.016;7.800;2022-07-05T13:00:08;25.17;;;23.70;;
1975;SDS011;988;48.016;7.800;2022-07-05T13:02:44;25.60;;;23.90;;
1975;SDS011;988;48.016;7.800;2022-07-05T13:05:21;26.20;;;24.33;;
1975;SDS011;988;48.016;7.800;2022-07-05T13:07:47;25.37;;;23.73;;
1975;SDS011;988;48.016;7.800;2022-07-05T13:10:19;24.97;;;23.57;;
1975;SDS011;988;48.016;7.800;2022-07-05T13:12:46;24.33;;;23.03;;
1975;SDS011;988;48.016;7.800;2022-07-05T13:15:12;24.53;;;23.20;;
1975;SDS011;988;48.016;7.800;2022-07-05T13:17:38;25.13;;;23.63;;
1975;SDS011;988;48.016;7.800;2022-07-05T13:20:05;24.40;;;23.00;;
1975;SDS011;988;48.016;7.800;2022-07-05T13:22:31;24.03;;;22.73;;
1975;SDS011;988;48.016;7.800;2022-07-05T13:24:57;23.73;;;22.43;;
1975;SDS011;988;48.016;7.800;2022-07-05T13:27:23;24.30;;;22.53;;
1975;SDS011;988;48.016;7.800;2022-07-05T13:29:49;23.93;;;22.53;;
1975;SDS011;988;48.016;7.800;2022-07-05T13:32:15;23.80;;;22.30;;
1975;SDS011;988;48.016;7.800;2022-07-05T13:34:45;24.53;;;23.13;;
1975;SDS011;988;48.016;7.800;2022-07-05T13:37:11;30.33;;;25.10;;
1975;SDS011;988;48.016;7.800;2022-07-05T13:39:37;24.03;;;22.73;;
1975;SDS011;988;48.016;7.800;2022-07-05T13:42:05;23.43;;;22.10;;
1975;SDS011;988;48.016;7.800;2022-07-05T13:44:31;23.40;;;22.10;;
1975;SDS011;988;48.016;7.800;2022-07-05T13:46:57;21.20;;;20.00;;
1975;SDS011;988;48.016;7.800;2022-07-05T13:49:23;22.67;;;21.20;;
1975;SDS011;988;48.016;7.800;2022-07-05T13:51:49;22.43;;;20.97;;
1975;SDS011;988;48.016;7.800;2022-07-05T13:54:15;22.23;;;20.83;;
1975;SDS011;988;48.016;7.800;2022-07-05T13:56:41;22.27;;;21.07;;
1975;SDS011;988;48.016;7.800;2022-07-05T13:59:07;21.50;;;20.30;;
1975;SDS011;988;48.016;7.800;2022-07-05T14:01:34;22.50;;;21.00;;
1975;SDS011;988;48.016;7.800;2022-07-05T14:04:00;22.03;;;20.57;;
1975;SDS011;988;48.016;7.800;2022-07-05T14:06:28;22.17;;;20.73;;
1975;SDS011;988;48.016;7.800;2022-07-05T14:08:54;22.00;;;20.60;;
1975;SDS011;988;48.016;7.800;2022-07-05T14:11:20;22.27;;;20.87;;
1975;SDS011;988;48.016;7.800;2022-07-05T14:13:46;21.20;;;20.00;;
1975;SDS011;988;48.016;7.800;2022-07-05T14:16:12;21.20;;;19.80;;
1975;SDS011;988;48.016;7.800;2022-07-05T14:18:39;21.60;;;20.40;;
1975;SDS011;988;48.016;7.800;2022-07-05T14:21:05;21.50;;;20.20;;
1975;SDS011;988;48.016;7.800;2022-07-05T14:23:31;21.00;;;19.83;;
1975;SDS011;988;48.016;7.800;2022-07-05T14:25:57;21.50;;;20.30;;
1975;SDS011;988;48.016;7.800;2022-07-05T14:28:24;21.13;;;19.80;;
1975;SDS011;988;48.016;7.800;2022-07-05T14:30:50;22.30;;;20.80;;
1975;SDS011;988;48.016;7.800;2022-07-05T14:33:16;21.90;;;20.50;;
1975;SDS011;988;48.016;7.800;2022-07-05T14:35:42;22.37;;;21.07;;
1975;SDS011;988;48.016;7.800;2022-07-05T14:38:08;22.83;;;21.53;;
1975;SDS011;988;48.016;7.800;2022-07-05T14:40:35;22.00;;;20.50;;
1975;SDS011;988;48.016;7.800;2022-07-05T14:43:01;21.87;;;20.47;;
1975;SDS011;988;48.016;7.800;2022-07-05T14:45:27;21.23;;;20.03;;
1975;SDS011;988;48.016;7.800;2022-07-05T14:47:54;21.47;;;20.27;;
1975;SDS011;988;48.016;7.800;2022-07-05T14:50:20;21.40;;;20.20;;
1975;SDS011;988;48.016;7.800;2022-07-05T14:52:47;22.03;;;20.63;;
1975;SDS011;988;48.016;7.800;2022-07-05T14:55:14;21.30;;;20.10;;
1975;SDS011;988;48.016;7.800;2022-07-05T14:57:41;21.40;;;20.20;;
1975;SDS011;988;48.016;7.800;2022-07-05T15:00:09;22.00;;;20.80;;
1975;SDS011;988;48.016;7.800;2022-07-05T15:02:36;22.10;;;20.70;;
1975;SDS011;988;48.016;7.800;2022-07-05T15:05:02;22.40;;;21.07;;
1975;SDS011;988;48.016;7.800;2022-07-05T15:07:28;22.40;;;21.00;;
1975;SDS011;988;48.016;7.800;2022-07-05T15:09:54;21.20;;;20.00;;
1975;SDS011;988;48.016;7.800;2022-07-05T15:12:20;22.90;;;21.30;;
1975;SDS011;988;48.016;7.800;2022-07-05T15:14:46;22.20;;;20.47;;
1975;SDS011;988;48.016;7.800;2022-07-05T15:17:13;21.63;;;20.43;;
1975;SDS011;988;48.016;7.800;2022-07-05T15:19:39;22.33;;;20.30;;